sensor_id;sensor_type;location;lat;lon;timestamp;pressure;altitude;pressure_sealevel;temperature;humidity
70841;BME280;58465;51.534;9.934;2022-09-27T00:00:43;97812.94;;;10.65;84.08
70841;BME280;58465;51.534;9.934;2022-09-27T00:03:11;97814.75;;;10.65;84.23
70841;BME280;58465;51.534;9.934;2022-09-27T00:05:37;97818.53;;;10.61;84.18
70841;BME280;58465;51.534;9.934;2022-09-27T00:08:02;97813.19;;;10.61;84.33
70841;BME280;58465;51.534;9.934;2022-09-27T00:10:28;97809.41;;;10.65;84.62
70841;BME280;58465;51.534;9.934;2022-09-27T00:12:54;97803.22;;;10.64;84.36
70841;BME280;58465;51.534;9.934;2022-09-27T00:15:19;97804.06;;;10.65;84.23
70841;BME280;58465;51.534;9.934;2022-09-27T00:17:45;97806.75;;;10.65;84.70
70841;BME280;58465;51.534;9.934;2022-09-27T00:20:10;97814.47;;;10.69;84.69
70841;BME280;58465;51.534;9.934;2022-09-27T00:22:35;97806.28;;;10.72;84.37
70841;BME280;58465;51.534;9.934;2022-09-27T00:25:01;97814.00;;;10.77;84.23
70841;BME280;58465;51.534;9.934;2022-09-27T00:27:29;97814.69;;;10.81;84.51
70841;BME280;58465;51.534;9.934;2022-09-27T00:29:55;97801.34;;;10.81;84.33
70841;BME280;58465;51.534;9.934;2022-09-27T00:32:20;97802.22;;;10.81;83.98
70841;BME280;58465;51.534;9.934;2022-09-27T00:34:45;97805.66;;;10.83;83.95
70841;BME280;58465;51.534;9.934;2022-09-27T00:37:11;97787.81;;;10.84;83.81
70841;BME280;58465;51.534;9.934;2022-09-27T00:39:37;97789.63;;;10.83;83.72
70841;BME280;58465;51.534;9.934;2022-09-27T00:42:04;97790.59;;;10.82;83.88
70841;BME280;58465;51.534;9.934;2022-09-27T00:47:14;97786.97;;;10.83;83.90
70841;BME280;58465;51.534;9.934;2022-09-27T00:49:52;97783.16;;;10.87;83.95
70841;BME280;58465;51.534;9.934;2022-09-27T00:52:42;97782.88;;;10.92;83.92
70841;BME280;58465;51.534;9.934;2022-09-27T00:55:18;97778.50;;;10.91;83.89
70841;BME280;58465;51.534;9.934;2022-09-27T00:57:45;97770.41;;;10.92;83.91
70841;BME280;58465;51.534;9.934;2022-09-27T01:00:12;97782.72;;;10.95;83.76
70841;BME280;58465;51.534;9.934;2022-09-27T01:02:42;97771.06;;;10.96;83.48
70841;BME280;58465;51.534;9.934;2022-09-27T01:05:10;97775.19;;;11.01;83.23
70841;BME280;58465;51.534;9.934;2022-09-27T01:07:36;97771.56;;;11.02;83.20
70841;BME280;58465;51.534;9.934;2022-09-27T01:10:04;97779.50;;;11.04;82.90
70841;BME280;58465;51.534;9.934;2022-09-27T01:15:12;97772.91;;;11.09;83.29
70841;BME280;58465;51.534;9.934;2022-09-27T01:17:58;97769.75;;;11.17;82.83
70841;BME280;58465;51.534;9.934;2022-09-27T01:31:50;97769.50;;;11.22;82.27
70841;BME280;58465;51.534;9.934;2022-09-27T01:34:30;97768.16;;;11.29;81.93
70841;BME280;58465;51.534;9.934;2022-09-27T01:37:18;97760.91;;;11.31;82.15
70841;BME280;58465;51.534;9.934;2022-09-27T01:39:58;97764.91;;;11.38;81.75
70841;BME280;58465;51.534;9.934;2022-09-27T01:42:30;97763.28;;;11.35;81.62
70841;BME280;58465;51.534;9.934;2022-09-27T01:45:13;97757.84;;;11.37;81.59
70841;BME280;58465;51.534;9.934;2022-09-27T01:47:48;97757.94;;;11.35;81.59
70841;BME280;58465;51.534;9.934;2022-09-27T01:50:38;97750.88;;;11.34;81.61
70841;BME280;58465;51.534;9.934;2022-09-27T01:53:08;97751.72;;;11.35;82.05
70841;BME280;58465;51.534;9.934;2022-09-27T01:55:36;97754.41;;;11.35;81.79
70841;BME280;58465;51.534;9.934;2022-09-27T01:58:11;97753.53;;;11.34;81.86
70841;BME280;58465;51.534;9.934;2022-09-27T02:00:41;97753.66;;;11.33;82.04
70841;BME280;58465;51.534;9.934;2022-09-27T02:03:21;97747.56;;;11.31;82.35
70841;BME280;58465;51.534;9.934;2022-09-27T02:05:52;97753.47;;;11.36;82.30
70841;BME280;58465;51.534;9.934;2022-09-27T02:08:40;97750.78;;;11.36;82.28
70841;BME280;58465;51.534;9.934;2022-09-27T02:11:10;97740.94;;;11.36;82.22
70841;BME280;58465;51.534;9.934;2022-09-27T02:19:08;97737.91;;;11.42;81.97
70841;BME280;58465;51.534;9.934;2022-09-27T02:24:18;97728.81;;;11.45;81.64
70841;BME280;58465;51.534;9.934;2022-09-27T02:26:48;97731.31;;;11.48;81.58
70841;BME280;58465;51.534;9.934;2022-09-27T02:29:21;97732.94;;;11.50;81.36
70841;BME280;58465;51.534;9.934;2022-09-27T02:31:48;97733.81;;;11.51;81.20
70841;BME280;58465;51.534;9.934;2022-09-27T02:34:23;97730.06;;;11.53;81.33
70841;BME280;58465;51.534;9.934;2022-09-27T02:36:50;97731.91;;;11.53;81.11
70841;BME280;58465;51.534;9.934;2022-09-27T02:39:17;97724.06;;;11.50;80.93
70841;BME280;58465;51.534;9.934;2022-09-27T02:41:43;97729.41;;;11.50;80.76
70841;BME280;58465;51.534;9.934;2022-09-27T02:44:11;97735.91;;;11.46;81.02
70841;BME280;58465;51.534;9.934;2022-09-27T02:46:42;97729.69;;;11.45;81.06
70841;BME280;58465;51.534;9.934;2022-09-27T02:49:30;97730.75;;;11.43;81.21
70841;BME280;58465;51.534;9.934;2022-09-27T02:55:05;97733.78;;;11.37;81.21
70841;BME280;58465;51.534;9.934;2022-09-27T03:00:19;97728.66;;;11.34;81.57
70841;BME280;58465;51.534;9.934;2022-09-27T03:05:31;97721.97;;;11.27;81.38
70841;BME280;58465;51.534;9.934;2022-09-27T03:07:58;97724.63;;;11.27;81.61
70841;BME280;58465;51.534;9.934;2022-09-27T03:10:26;97721.88;;;11.28;81.54
70841;BME280;58465;51.534;9.934;2022-09-27T03:12:52;97722.91;;;11.26;81.39
70841;BME280;58465;51.534;9.934;2022-09-27T03:15:18;97727.03;;;11.31;81.54
70841;BME280;58465;51.534;9.934;2022-09-27T03:17:44;97719.88;;;11.32;81.63
70841;BME280;58465;51.534;9.934;2022-09-27T03:20:09;97717.22;;;11.32;81.46
70841;BME280;58465;51.534;9.934;2022-09-27T03:22:35;97719.47;;;11.38;81.38
70841;BME280;58465;51.534;9.934;2022-09-27T03:25:02;97714.91;;;11.40;81.34
70841;BME280;58465;51.534;9.934;2022-09-27T03:27:28;97723.59;;;11.43;81.18
70841;BME280;58465;51.534;9.934;2022-09-27T03:29:53;97724.81;;;11.38;81.25
70841;BME280;58465;51.534;9.934;2022-09-27T03:32:18;97720.84;;;11.31;81.24
70841;BME280;58465;51.534;9.934;2022-09-27T03:34:44;97728.16;;;11.27;81.12
70841;BME280;58465;51.534;9.934;2022-09-27T03:37:10;97729.22;;;11.25;81.16
70841;BME280;58465;51.534;9.934;2022-09-27T03:39:35;97721.41;;;11.22;80.95
70841;BME280;58465;51.534;9.934;2022-09-27T03:42:00;97725.78;;;11.23;80.90
70841;BME280;58465;51.534;9.934;2022-09-27T03:44:25;97717.00;;;11.21;80.84
70841;BME280;58465;51.534;9.934;2022-09-27T03:46:51;97721.31;;;11.23;81.18
70841;BME280;58465;51.534;9.934;2022-09-27T03:49:16;97711.75;;;11.19;81.16
70841;BME280;58465;51.534;9.934;2022-09-27T03:51:42;97722.34;;;11.21;80.68
70841;BME280;58465;51.534;9.934;2022-09-27T03:54:07;97721.75;;;11.15;80.95
70841;BME280;58465;51.534;9.934;2022-09-27T03:56:32;97714.81;;;11.13;81.10
70841;BME280;58465;51.534;9.934;2022-09-27T03:58:58;97707.25;;;11.05;81.10
70841;BME280;58465;51.534;9.934;2022-09-27T04:01:23;97708.63;;;11.12;81.42
70841;BME280;58465;51.534;9.934;2022-09-27T04:03:50;97703.28;;;11.12;80.98
70841;BME280;58465;51.534;9.934;2022-09-27T04:06:15;97703.28;;;11.12;80.94
70841;BME280;58465;51.534;9.934;2022-09-27T04:08:41;97701.47;;;11.13;81.09
70841;BME280;58465;51.534;9.934;2022-09-27T04:11:07;97701.47;;;11.13;80.99
70841;BME280;58465;51.534;9.934;2022-09-27T04:13:32;97699.84;;;11.10;81.47
70841;BME280;58465;51.534;9.934;2022-09-27T04:15:57;97699.91;;;11.09;81.48
70841;BME280;58465;51.534;9.934;2022-09-27T04:18:23;97705.84;;;11.14;81.51
70841;BME280;58465;51.534;9.934;2022-09-27T04:20:48;97698.56;;;11.16;81.47
70841;BME280;58465;51.534;9.934;2022-09-27T04:23:13;97704.78;;;11.16;81.59
70841;BME280;58465;51.534;9.934;2022-09-27T04:25:38;97710.03;;;11.18;82.08
70841;BME280;58465;51.534;9.934;2022-09-27T04:28:04;97702.50;;;11.10;82.20
70841;BME280;58465;51.534;9.934;2022-09-27T04:30:30;97710.59;;;11.09;82.47
70841;BME280;58465;51.534;9.934;2022-09-27T04:32:55;97703.16;;;11.00;83.02
70841;BME280;58465;51.534;9.934;2022-09-27T04:35:21;97712.13;;;10.99;82.88
70841;BME280;58465;51.534;9.934;2022-09-27T04:38:05;97711.34;;;10.97;82.53
70841;BME280;58465;51.534;9.934;2022-09-27T04:40:34;97723.75;;;10.98;81.97
70841;BME280;58465;51.534;9.934;2022-09-27T04:43:00;97722.97;;;10.96;81.06
70841;BME280;58465;51.534;9.934;2022-09-27T04:45:25;97727.84;;;10.89;80.97
70841;BME280;58465;51.534;9.934;2022-09-27T04:47:50;97731.84;;;10.82;81.44
70841;BME280;58465;51.534;9.934;2022-09-27T04:50:17;97733.56;;;10.83;80.82
70841;BME280;58465;51.534;9.934;2022-09-27T04:52:43;97730.13;;;10.81;81.78
70841;BME280;58465;51.534;9.934;2022-09-27T04:55:09;97739.06;;;10.80;81.62
70841;BME280;58465;51.534;9.934;2022-09-27T04:57:35;97740.31;;;10.74;81.34
70841;BME280;58465;51.534;9.934;2022-09-27T05:00:01;97744.28;;;10.67;81.44
70841;BME280;58465;51.534;9.934;2022-09-27T05:02:28;97751.25;;;10.70;81.39
70841;BME280;58465;51.534;9.934;2022-09-27T05:04:54;97750.41;;;10.69;82.01
70841;BME280;58465;51.534;9.934;2022-09-27T05:07:25;97753.94;;;10.70;81.42
70841;BME280;58465;51.534;9.934;2022-09-27T05:09:50;97756.88;;;10.65;81.78
70841;BME280;58465;51.534;9.934;2022-09-27T05:12:15;97753.16;;;10.68;81.85
70841;BME280;58465;51.534;9.934;2022-09-27T05:14:41;97765.75;;;10.66;81.40
70841;BME280;58465;51.534;9.934;2022-09-27T05:17:06;97763.94;;;10.66;81.75
70841;BME280;58465;51.534;9.934;2022-09-27T05:19:32;97774.00;;;10.61;81.80
70841;BME280;58465;51.534;9.934;2022-09-27T05:21:58;97779.72;;;10.55;81.60
70841;BME280;58465;51.534;9.934;2022-09-27T05:24:23;97782.50;;;10.38;81.81
70841;BME280;58465;51.534;9.934;2022-09-27T05:26:48;97787.41;;;10.30;82.46
70841;BME280;58465;51.534;9.934;2022-09-27T05:29:14;97784.41;;;10.20;81.85
70841;BME280;58465;51.534;9.934;2022-09-27T05:31:40;97796.19;;;10.16;82.93
70841;BME280;58465;51.534;9.934;2022-09-27T05:34:05;97791.47;;;10.21;83.33
70841;BME280;58465;51.534;9.934;2022-09-27T05:36:33;97797.84;;;10.19;82.74
70841;BME280;58465;51.534;9.934;2022-09-27T05:38:58;97795.94;;;10.21;83.20
70841;BME280;58465;51.534;9.934;2022-09-27T05:41:24;97802.47;;;10.31;83.64
70841;BME280;58465;51.534;9.934;2022-09-27T05:43:50;97805.47;;;10.40;83.47
70841;BME280;58465;51.534;9.934;2022-09-27T05:46:16;97803.22;;;10.49;83.20
70841;BME280;58465;51.534;9.934;2022-09-27T05:48:41;97808.88;;;10.58;82.55
70841;BME280;58465;51.534;9.934;2022-09-27T05:51:07;97806.91;;;10.62;82.32
70841;BME280;58465;51.534;9.934;2022-09-27T05:53:32;97813.44;;;10.72;82.37
70841;BME280;58465;51.534;9.934;2022-09-27T05:56:02;97813.16;;;10.76;82.28
70841;BME280;58465;51.534;9.934;2022-09-27T05:58:28;97818.22;;;10.81;82.39
70841;BME280;58465;51.534;9.934;2022-09-27T06:00:53;97814.22;;;10.74;81.99
70841;BME280;58465;51.534;9.934;2022-09-27T06:03:19;97822.31;;;10.72;82.25
70841;BME280;58465;51.534;9.934;2022-09-27T06:05:44;97823.34;;;10.70;82.52
70841;BME280;58465;51.534;9.934;2022-09-27T06:08:11;97820.75;;;10.68;82.86
70841;BME280;58465;51.534;9.934;2022-09-27T06:10:37;97828.00;;;10.66;82.82
70841;BME280;58465;51.534;9.934;2022-09-27T06:13:09;97826.38;;;10.64;83.15
70841;BME280;58465;51.534;9.934;2022-09-27T06:15:36;97831.97;;;10.59;83.23
70841;BME280;58465;51.534;9.934;2022-09-27T06:18:14;97826.69;;;10.58;83.46
70841;BME280;58465;51.534;9.934;2022-09-27T06:20:42;97833.03;;;10.57;83.51
70841;BME280;58465;51.534;9.934;2022-09-27T06:23:16;97832.31;;;10.53;83.59
70841;BME280;58465;51.534;9.934;2022-09-27T06:25:42;97841.97;;;10.56;83.71
70841;BME280;58465;51.534;9.934;2022-09-27T06:28:08;97845.59;;;10.55;83.81
70841;BME280;58465;51.534;9.934;2022-09-27T06:30:38;97844.44;;;10.59;83.96
70841;BME280;58465;51.534;9.934;2022-09-27T06:33:04;97849.69;;;10.60;84.06
70841;BME280;58465;51.534;9.934;2022-09-27T06:35:30;97855.03;;;10.60;84.02
70841;BME280;58465;51.534;9.934;2022-09-27T06:37:56;97855.81;;;10.62;83.73
70841;BME280;58465;51.534;9.934;2022-09-27T06:40:22;97869.16;;;10.62;83.59
70841;BME280;58465;51.534;9.934;2022-09-27T06:43:02;97863.03;;;10.60;83.30
70841;BME280;58465;51.534;9.934;2022-09-27T06:45:28;97871.75;;;10.64;83.79
70841;BME280;58465;51.534;9.934;2022-09-27T06:47:55;97873.72;;;10.60;83.60
70841;BME280;58465;51.534;9.934;2022-09-27T06:50:21;97880.34;;;10.69;83.38
70841;BME280;58465;51.534;9.934;2022-09-27T06:52:47;97886.53;;;10.69;82.58
70841;BME280;58465;51.534;9.934;2022-09-27T06:55:13;97887.41;;;10.70;82.68
70841;BME280;58465;51.534;9.934;2022-09-27T06:57:38;97887.16;;;10.74;82.63
70841;BME280;58465;51.534;9.934;2022-09-27T07:00:22;97891.53;;;10.75;82.35
70841;BME280;58465;51.534;9.934;2022-09-27T07:02:48;97895.66;;;10.81;82.54
70841;BME280;58465;51.534;9.934;2022-09-27T07:05:14;97898.09;;;10.86;81.96
70841;BME280;58465;51.534;9.934;2022-09-27T07:07:39;97895.22;;;10.89;81.30
70841;BME280;58465;51.534;9.934;2022-09-27T07:10:05;97904.09;;;10.89;81.12
70841;BME280;58465;51.534;9.934;2022-09-27T07:12:31;97905.88;;;10.89;80.98
70841;BME280;58465;51.534;9.934;2022-09-27T07:14:56;97914.00;;;10.87;80.90
70841;BME280;58465;51.534;9.934;2022-09-27T07:17:21;97915.03;;;10.85;80.71
70841;BME280;58465;51.534;9.934;2022-09-27T07:19:47;97919.25;;;10.89;80.55
70841;BME280;58465;51.534;9.934;2022-09-27T07:22:13;97922.69;;;10.91;80.36
70841;BME280;58465;51.534;9.934;2022-09-27T07:24:38;97914.44;;;10.95;80.44
70841;BME280;58465;51.534;9.934;2022-09-27T07:27:03;97939.22;;;10.97;80.07
70841;BME280;58465;51.534;9.934;2022-09-27T07:29:29;97926.16;;;10.93;79.72
70841;BME280;58465;51.534;9.934;2022-09-27T07:31:54;97941.47;;;11.05;79.63
70841;BME280;58465;51.534;9.934;2022-09-27T07:34:19;97938.16;;;11.15;79.32
70841;BME280;58465;51.534;9.934;2022-09-27T07:36:45;97930.56;;;11.24;79.36
70841;BME280;58465;51.534;9.934;2022-09-27T07:39:10;97942.78;;;11.28;79.57
70841;BME280;58465;51.534;9.934;2022-09-27T07:41:35;97946.72;;;11.36;79.50
70841;BME280;58465;51.534;9.934;2022-09-27T07:44:03;97949.47;;;11.35;79.11
70841;BME280;58465;51.534;9.934;2022-09-27T07:46:32;97954.50;;;11.41;79.15
70841;BME280;58465;51.534;9.934;2022-09-27T07:48:57;97962.59;;;11.39;78.35
70841;BME280;58465;51.534;9.934;2022-09-27T07:51:22;97963.16;;;11.44;79.21
70841;BME280;58465;51.534;9.934;2022-09-27T07:53:48;97957.56;;;11.49;78.50
70841;BME280;58465;51.534;9.934;2022-09-27T07:56:13;97962.63;;;11.53;76.37
70841;BME280;58465;51.534;9.934;2022-09-27T07:58:38;97972.25;;;11.72;77.36
70841;BME280;58465;51.534;9.934;2022-09-27T08:01:04;97969.53;;;11.87;76.23
70841;BME280;58465;51.534;9.934;2022-09-27T08:03:29;97975.66;;;12.04;75.83
70841;BME280;58465;51.534;9.934;2022-09-27T08:05:55;97978.53;;;12.01;75.25
70841;BME280;58465;51.534;9.934;2022-09-27T08:08:21;97986.69;;;12.27;74.35
70841;BME280;58465;51.534;9.934;2022-09-27T08:10:46;97976.34;;;12.50;73.13
70841;BME280;58465;51.534;9.934;2022-09-27T08:13:12;97982.84;;;12.46;72.27
70841;BME280;58465;51.534;9.934;2022-09-27T08:15:38;97987.81;;;12.66;71.46
70841;BME280;58465;51.534;9.934;2022-09-27T08:18:05;97979.56;;;12.69;71.02
70841;BME280;58465;51.534;9.934;2022-09-27T08:20:30;97987.59;;;12.69;70.41
70841;BME280;58465;51.534;9.934;2022-09-27T08:22:56;97984.09;;;12.69;70.36
70841;BME280;58465;51.534;9.934;2022-09-27T08:25:21;97989.44;;;12.69;70.96
70841;BME280;58465;51.534;9.934;2022-09-27T08:27:55;98003.78;;;12.53;70.04
70841;BME280;58465;51.534;9.934;2022-09-27T08:30:21;98006.06;;;12.59;70.50
70841;BME280;58465;51.534;9.934;2022-09-27T08:32:46;98006.47;;;12.53;70.37
70841;BME280;58465;51.534;9.934;2022-09-27T08:35:12;98009.34;;;12.36;70.66
70841;BME280;58465;51.534;9.934;2022-09-27T08:37:39;98014.59;;;12.38;70.31
70841;BME280;58465;51.534;9.934;2022-09-27T08:40:05;98014.78;;;12.35;70.22
70841;BME280;58465;51.534;9.934;2022-09-27T08:42:49;98022.59;;;12.23;69.64
70841;BME280;58465;51.534;9.934;2022-09-27T08:45:31;98020.97;;;12.21;70.03
70841;BME280;58465;51.534;9.934;2022-09-27T08:48:00;98028.72;;;12.25;69.78
70841;BME280;58465;51.534;9.934;2022-09-27T08:50:42;98035.63;;;12.44;70.19
70841;BME280;58465;51.534;9.934;2022-09-27T08:53:19;98032.75;;;12.61;69.36
70841;BME280;58465;51.534;9.934;2022-09-27T08:55:56;98033.69;;;12.88;69.21
70841;BME280;58465;51.534;9.934;2022-09-27T08:58:27;98040.75;;;13.04;68.00
70841;BME280;58465;51.534;9.934;2022-09-27T09:00:56;98032.53;;;13.07;67.65
70841;BME280;58465;51.534;9.934;2022-09-27T09:03:25;98041.88;;;13.28;67.29
70841;BME280;58465;51.534;9.934;2022-09-27T09:06:06;98047.31;;;13.26;66.41
70841;BME280;58465;51.534;9.934;2022-09-27T09:08:43;98041.94;;;13.41;66.42
70841;BME280;58465;51.534;9.934;2022-09-27T09:11:24;98050.66;;;13.44;66.14
70841;BME280;58465;51.534;9.934;2022-09-27T09:17:23;98052.69;;;13.12;66.61
70841;BME280;58465;51.534;9.934;2022-09-27T09:20:12;98060.09;;;13.23;65.18
70841;BME280;58465;51.534;9.934;2022-09-27T09:31:10;98048.00;;;13.30;64.23
70841;BME280;58465;51.534;9.934;2022-09-27T09:33:44;98053.69;;;13.25;64.08
70841;BME280;58465;51.534;9.934;2022-09-27T09:36:29;98057.91;;;13.15;64.30
70841;BME280;58465;51.534;9.934;2022-09-27T09:39:13;98053.47;;;13.28;63.70
70841;BME280;58465;51.534;9.934;2022-09-27T09:44:27;98052.06;;;13.50;63.50
70841;BME280;58465;51.534;9.934;2022-09-27T09:46:56;98055.19;;;13.56;63.23
70841;BME280;58465;51.534;9.934;2022-09-27T09:49:31;98054.13;;;13.32;63.66
70841;BME280;58465;51.534;9.934;2022-09-27T09:52:03;98052.03;;;13.09;64.88
70841;BME280;58465;51.534;9.934;2022-09-27T09:54:40;98059.63;;;12.88;65.89
70841;BME280;58465;51.534;9.934;2022-09-27T09:57:21;98061.06;;;12.79;65.69
70841;BME280;58465;51.534;9.934;2022-09-27T09:59:51;98075.31;;;12.94;66.12
70841;BME280;58465;51.534;9.934;2022-09-27T10:02:32;98066.63;;;12.76;65.56
70841;BME280;58465;51.534;9.934;2022-09-27T10:05:00;98059.25;;;12.51;67.34
70841;BME280;58465;51.534;9.934;2022-09-27T10:07:25;98054.75;;;12.38;67.39
70841;BME280;58465;51.534;9.934;2022-09-27T10:09:54;98064.41;;;12.54;67.52
70841;BME280;58465;51.534;9.934;2022-09-27T10:12:21;98062.50;;;12.71;67.05
70841;BME280;58465;51.534;9.934;2022-09-27T10:14:48;98061.16;;;12.63;67.12
70841;BME280;58465;51.534;9.934;2022-09-27T10:17:17;98060.97;;;12.67;66.43
70841;BME280;58465;51.534;9.934;2022-09-27T10:19:44;98059.34;;;12.64;66.36
70841;BME280;58465;51.534;9.934;2022-09-27T10:22:21;98059.63;;;12.88;65.96
70841;BME280;58465;51.534;9.934;2022-09-27T10:24:57;98057.78;;;13.17;64.71
70841;BME280;58465;51.534;9.934;2022-09-27T10:27:24;98068.31;;;13.34;63.58
70841;BME280;58465;51.534;9.934;2022-09-27T10:29:59;98061.25;;;13.46;63.48
70841;BME280;58465;51.534;9.934;2022-09-27T10:32:29;98060.88;;;13.52;63.44
70841;BME280;58465;51.534;9.934;2022-09-27T10:38:20;98059.41;;;13.19;63.14
70841;BME280;58465;51.534;9.934;2022-09-27T10:40:50;98060.94;;;13.64;62.70
70841;BME280;58465;51.534;9.934;2022-09-27T10:43:33;98053.19;;;13.60;61.12
70841;BME280;58465;51.534;9.934;2022-09-27T10:48:31;98063.56;;;13.52;61.42
70841;BME280;58465;51.534;9.934;2022-09-27T10:50:58;98055.09;;;13.58;60.76
70841;BME280;58465;51.534;9.934;2022-09-27T10:53:25;98059.56;;;13.71;59.77
70841;BME280;58465;51.534;9.934;2022-09-27T10:55:52;98059.47;;;13.86;59.02
70841;BME280;58465;51.534;9.934;2022-09-27T10:58:23;98067.13;;;13.92;58.94
70841;BME280;58465;51.534;9.934;2022-09-27T11:01:01;98066.38;;;13.90;58.58
70841;BME280;58465;51.534;9.934;2022-09-27T11:03:32;98067.63;;;13.57;58.92
70841;BME280;58465;51.534;9.934;2022-09-27T11:06:17;98081.03;;;13.30;59.41
70841;BME280;58465;51.534;9.934;2022-09-27T11:08:43;98078.81;;;13.37;59.47
70841;BME280;58465;51.534;9.934;2022-09-27T11:13:40;98080.94;;;13.32;60.35
70841;BME280;58465;51.534;9.934;2022-09-27T11:16:39;98084.91;;;13.53;59.52
70841;BME280;58465;51.534;9.934;2022-09-27T11:27:46;98080.56;;;14.82;56.66
70841;BME280;58465;51.534;9.934;2022-09-27T11:30:16;98068.00;;;14.57;57.35
70841;BME280;58465;51.534;9.934;2022-09-27T11:33:02;98071.38;;;14.21;57.45
70841;BME280;58465;51.534;9.934;2022-09-27T11:38:30;98074.81;;;15.61;54.14
70841;BME280;58465;51.534;9.934;2022-09-27T11:46:29;98070.97;;;15.40;52.22
70841;BME280;58465;51.534;9.934;2022-09-27T11:49:21;98074.97;;;15.47;52.78
70841;BME280;58465;51.534;9.934;2022-09-27T11:57:47;98065.25;;;17.85;45.72
70841;BME280;58465;51.534;9.934;2022-09-27T12:05:55;98069.06;;;19.27;42.80
70841;BME280;58465;51.534;9.934;2022-09-27T12:08:40;98081.94;;;19.14;42.99
70841;BME280;58465;51.534;9.934;2022-09-27T12:11:40;98077.75;;;18.70;43.91
70841;BME280;58465;51.534;9.934;2022-09-27T12:14:23;98077.63;;;18.19;44.68
70841;BME280;58465;51.534;9.934;2022-09-27T12:16:54;98077.66;;;18.08;45.19
70841;BME280;58465;51.534;9.934;2022-09-27T12:19:24;98078.31;;;18.00;43.96
70841;BME280;58465;51.534;9.934;2022-09-27T12:21:54;98065.47;;;18.66;42.67
70841;BME280;58465;51.534;9.934;2022-09-27T12:24:22;98071.59;;;19.50;41.08
70841;BME280;58465;51.534;9.934;2022-09-27T12:26:57;98067.84;;;18.80;41.62
70841;BME280;58465;51.534;9.934;2022-09-27T12:29:29;98079.47;;;17.87;43.12
70841;BME280;58465;51.534;9.934;2022-09-27T12:40:05;98072.59;;;16.03;47.26
70841;BME280;58465;51.534;9.934;2022-09-27T12:42:41;98066.22;;;16.04;46.82
70841;BME280;58465;51.534;9.934;2022-09-27T12:45:11;98084.75;;;15.84;47.50
70841;BME280;58465;51.534;9.934;2022-09-27T12:47:52;98068.00;;;15.92;46.98
70841;BME280;58465;51.534;9.934;2022-09-27T12:50:52;98067.00;;;16.63;44.65
70841;BME280;58465;51.534;9.934;2022-09-27T12:53:23;98072.22;;;16.88;44.78
70841;BME280;58465;51.534;9.934;2022-09-27T12:55:58;98072.31;;;16.87;44.71
70841;BME280;58465;51.534;9.934;2022-09-27T12:58:39;98071.41;;;16.53;46.02
70841;BME280;58465;51.534;9.934;2022-09-27T13:12:46;98070.06;;;16.12;46.68
70841;BME280;58465;51.534;9.934;2022-09-27T13:15:20;98067.69;;;15.73;47.75
70841;BME280;58465;51.534;9.934;2022-09-27T13:17:50;98068.75;;;15.34;48.74
70841;BME280;58465;51.534;9.934;2022-09-27T13:23:02;98077.88;;;14.82;51.26
70841;BME280;58465;51.534;9.934;2022-09-27T13:25:57;98078.09;;;14.66;51.37
70841;BME280;58465;51.534;9.934;2022-09-27T13:31:11;98079.38;;;14.99;49.80
70841;BME280;58465;51.534;9.934;2022-09-27T13:33:44;98091.41;;;15.18;49.89
70841;BME280;58465;51.534;9.934;2022-09-27T13:38:52;98090.75;;;15.15;49.67
70841;BME280;58465;51.534;9.934;2022-09-27T13:41:27;98094.19;;;15.17;49.72
70841;BME280;58465;51.534;9.934;2022-09-27T13:46:45;98087.97;;;15.53;49.37
70841;BME280;58465;51.534;9.934;2022-09-27T13:49:23;98091.50;;;15.17;49.79
70841;BME280;58465;51.534;9.934;2022-09-27T13:51:55;98089.91;;;15.38;49.74
70841;BME280;58465;51.534;9.934;2022-09-27T13:57:41;98085.78;;;15.21;50.21
70841;BME280;58465;51.534;9.934;2022-09-27T14:00:13;98081.84;;;15.38;49.74
70841;BME280;58465;51.534;9.934;2022-09-27T14:05:30;98084.44;;;15.40;49.20
70841;BME280;58465;51.534;9.934;2022-09-27T14:07:58;98088.50;;;15.09;50.07
70841;BME280;58465;51.534;9.934;2022-09-27T14:10:27;98093.53;;;15.13;49.73
70841;BME280;58465;51.534;9.934;2022-09-27T14:12:53;98088.72;;;14.93;50.36
70841;BME280;58465;51.534;9.934;2022-09-27T14:15:24;98091.84;;;14.87;50.54
70841;BME280;58465;51.534;9.934;2022-09-27T14:17:52;98095.09;;;14.67;50.75
70841;BME280;58465;51.534;9.934;2022-09-27T14:20:35;98097.38;;;14.33;51.58
70841;BME280;58465;51.534;9.934;2022-09-27T14:23:02;98095.66;;;14.20;52.13
70841;BME280;58465;51.534;9.934;2022-09-27T14:25:27;98109.69;;;14.10;52.53
70841;BME280;58465;51.534;9.934;2022-09-27T14:27:53;98114.97;;;13.85;54.67
70841;BME280;58465;51.534;9.934;2022-09-27T14:30:21;98112.34;;;13.71;56.44
70841;BME280;58465;51.534;9.934;2022-09-27T14:32:49;98114.25;;;13.69;56.71
70841;BME280;58465;51.534;9.934;2022-09-27T14:35:20;98109.41;;;13.61;56.72
70841;BME280;58465;51.534;9.934;2022-09-27T14:38:16;98105.53;;;13.65;56.46
70841;BME280;58465;51.534;9.934;2022-09-27T14:43:18;98115.81;;;13.59;55.58
70841;BME280;58465;51.534;9.934;2022-09-27T14:45:46;98113.72;;;13.64;55.32
70841;BME280;58465;51.534;9.934;2022-09-27T14:51:02;98113.47;;;13.54;55.40
70841;BME280;58465;51.534;9.934;2022-09-27T14:53:30;98117.72;;;13.57;55.17
70841;BME280;58465;51.534;9.934;2022-09-27T14:55:57;98112.59;;;13.54;55.13
70841;BME280;58465;51.534;9.934;2022-09-27T14:58:23;98119.28;;;13.61;55.51
70841;BME280;58465;51.534;9.934;2022-09-27T15:00:50;98120.63;;;13.54;55.67
70841;BME280;58465;51.534;9.934;2022-09-27T15:03:27;98119.78;;;13.53;55.55
70841;BME280;58465;51.534;9.934;2022-09-27T15:05:54;98109.41;;;13.61;55.48
70841;BME280;58465;51.534;9.934;2022-09-27T15:08:22;98111.47;;;13.70;54.96
70841;BME280;58465;51.534;9.934;2022-09-27T15:10:49;98112.59;;;13.81;54.67
70841;BME280;58465;51.534;9.934;2022-09-27T15:13:16;98111.13;;;13.89;54.40
70841;BME280;58465;51.534;9.934;2022-09-27T15:15:43;98106.28;;;13.82;54.28
70841;BME280;58465;51.534;9.934;2022-09-27T15:18:33;98103.63;;;13.67;54.37
70841;BME280;58465;51.534;9.934;2022-09-27T15:21:04;98106.28;;;13.55;54.50